sensor_id;sensor_type;location;lat;lon;timestamp;pressure;altitude;pressure_sealevel;temperature;humidity
69060;BME280;56135;37.534;-122.308;2022-09-29T00:00:33;101540.78;;;22.51;69.31
69060;BME280;56135;37.534;-122.308;2022-09-29T00:02:59;101545.31;;;22.50;69.48
69060;BME280;56135;37.534;-122.308;2022-09-29T00:05:25;101551.88;;;22.44;69.44
69060;BME280;56135;37.534;-122.308;2022-09-29T00:07:51;101547.69;;;22.39;69.92
69060;BME280;56135;37.534;-122.308;2022-09-29T00:10:16;101551.56;;;22.31;71.01
69060;BME280;56135;37.534;-122.308;2022-09-29T00:12:42;101561.84;;;22.23;70.33
69060;BME280;56135;37.534;-122.308;2022-09-29T00:15:08;101560.38;;;22.16;71.10
69060;BME280;56135;37.534;-122.308;2022-09-29T00:17:34;101554.31;;;22.12;72.06
69060;BME280;56135;37.534;-122.308;2022-09-29T00:20:00;101564.41;;;22.07;72.92
69060;BME280;56135;37.534;-122.308;2022-09-29T00:22:26;101557.66;;;21.98;73.32
69060;BME280;56135;37.534;-122.308;2022-09-29T00:24:51;101556.66;;;21.82;73.76
69060;BME280;56135;37.534;-122.308;2022-09-29T00:27:17;101559.75;;;21.73;74.34
69060;BME280;56135;37.534;-122.308;2022-09-29T00:29:43;101561.94;;;21.64;75.18
69060;BME280;56135;37.534;-122.308;2022-09-29T00:32:09;101568.47;;;21.59;75.30
69060;BME280;56135;37.534;-122.308;2022-09-29T00:34:35;101563.22;;;21.56;75.96
69060;BME280;56135;37.534;-122.308;2022-09-29T00:37:01;101568.84;;;21.49;76.39
69060;BME280;56135;37.534;-122.308;2022-09-29T00:39:27;101565.38;;;21.47;76.64
69060;BME280;56135;37.534;-122.308;2022-09-29T00:41:52;101561.44;;;21.36;76.44
69060;BME280;56135;37.534;-122.308;2022-09-29T00:51:42;101558.66;;;21.16;77.22
69060;BME280;56135;37.534;-122.308;2022-09-29T00:54:09;101559.03;;;21.09;78.28
69060;BME280;56135;37.534;-122.308;2022-09-29T00:56:35;101559.28;;;21.03;78.57
69060;BME280;56135;37.534;-122.308;2022-09-29T00:59:06;101567.75;;;20.93;79.11
69060;BME280;56135;37.534;-122.308;2022-09-29T01:01:33;101565.31;;;20.87;79.01
69060;BME280;56135;37.534;-122.308;2022-09-29T01:04:01;101569.34;;;20.77;79.42
69060;BME280;56135;37.534;-122.308;2022-09-29T01:06:30;101566.72;;;20.75;79.11
69060;BME280;56135;37.534;-122.308;2022-09-29T01:11:23;101575.19;;;20.64;79.81
69060;BME280;56135;37.534;-122.308;2022-09-29T01:13:49;101572.72;;;20.60;79.53
69060;BME280;56135;37.534;-122.308;2022-09-29T01:16:16;101566.66;;;20.55;80.16
69060;BME280;56135;37.534;-122.308;2022-09-29T01:18:42;101566.78;;;20.52;79.83
69060;BME280;56135;37.534;-122.308;2022-09-29T01:23:49;101563.75;;;20.39;81.29
69060;BME280;56135;37.534;-122.308;2022-09-29T01:46:27;101576.16;;;19.72;87.97
69060;BME280;56135;37.534;-122.308;2022-09-29T01:48:56;101582.56;;;19.67;87.28
69060;BME280;56135;37.534;-122.308;2022-09-29T01:51:27;101580.13;;;19.61;88.70
69060;BME280;56135;37.534;-122.308;2022-09-29T01:53:55;101584.69;;;19.59;87.83
69060;BME280;56135;37.534;-122.308;2022-09-29T01:56:25;101576.78;;;19.55;88.25
69060;BME280;56135;37.534;-122.308;2022-09-29T01:58:54;101588.56;;;19.50;89.48
69060;BME280;56135;37.534;-122.308;2022-09-29T02:01:23;101579.66;;;19.50;88.23
69060;BME280;56135;37.534;-122.308;2022-09-29T02:03:51;101578.09;;;19.44;89.64
69060;BME280;56135;37.534;-122.308;2022-09-29T02:06:25;101583.53;;;19.41;90.60
69060;BME280;56135;37.534;-122.308;2022-09-29T02:08:52;101578.25;;;19.40;90.62
69060;BME280;56135;37.534;-122.308;2022-09-29T02:11:19;101568.56;;;19.36;90.87
69060;BME280;56135;37.534;-122.308;2022-09-29T02:16:30;101574.97;;;19.31;91.50
69060;BME280;56135;37.534;-122.308;2022-09-29T02:18:58;101579.44;;;19.31;91.61
69060;BME280;56135;37.534;-122.308;2022-09-29T02:21:25;101578.69;;;19.27;91.82
69060;BME280;56135;37.534;-122.308;2022-09-29T02:23:52;101579.75;;;19.23;92.18
69060;BME280;56135;37.534;-122.308;2022-09-29T02:26:18;101578.78;;;19.24;92.19
69060;BME280;56135;37.534;-122.308;2022-09-29T02:28:44;101577.16;;;19.20;92.07
69060;BME280;56135;37.534;-122.308;2022-09-29T02:31:10;101576.28;;;19.20;91.93
69060;BME280;56135;37.534;-122.308;2022-09-29T02:33:37;101584.44;;;19.16;92.10
69060;BME280;56135;37.534;-122.308;2022-09-29T02:36:10;101583.66;;;19.13;93.28
69060;BME280;56135;37.534;-122.308;2022-09-29T02:38:49;101584.53;;;19.13;92.58
69060;BME280;56135;37.534;-122.308;2022-09-29T02:43:47;101601.63;;;19.09;92.48
69060;BME280;56135;37.534;-122.308;2022-09-29T02:46:24;101603.41;;;19.10;91.80
69060;BME280;56135;37.534;-122.308;2022-09-29T02:51:53;101609.84;;;19.05;92.78
69060;BME280;56135;37.534;-122.308;2022-09-29T03:02:30;101600.53;;;18.88;96.63
69060;BME280;56135;37.534;-122.308;2022-09-29T03:04:56;101608.56;;;18.88;96.52
69060;BME280;56135;37.534;-122.308;2022-09-29T03:07:22;101611.22;;;18.90;98.26
69060;BME280;56135;37.534;-122.308;2022-09-29T03:09:48;101606.00;;;18.85;97.04
69060;BME280;56135;37.534;-122.308;2022-09-29T03:12:14;101600.97;;;18.76;99.06
69060;BME280;56135;37.534;-122.308;2022-09-29T03:14:39;101601.78;;;18.78;99.25
69060;BME280;56135;37.534;-122.308;2022-09-29T03:17:05;101602.66;;;18.78;98.09
69060;BME280;56135;37.534;-122.308;2022-09-29T03:19:31;101608.06;;;18.77;98.91
69060;BME280;56135;37.534;-122.308;2022-09-29T03:21:59;101611.78;;;18.73;99.52
69060;BME280;56135;37.534;-122.308;2022-09-29T03:24:25;101611.88;;;18.70;99.39
69060;BME280;56135;37.534;-122.308;2022-09-29T03:26:51;101616.25;;;18.72;100.00
69060;BME280;56135;37.534;-122.308;2022-09-29T03:29:20;101620.78;;;18.70;99.06
69060;BME280;56135;37.534;-122.308;2022-09-29T03:31:45;101622.69;;;18.66;98.26
69060;BME280;56135;37.534;-122.308;2022-09-29T03:34:12;101626.47;;;18.59;99.63
69060;BME280;56135;37.534;-122.308;2022-09-29T03:36:37;101623.84;;;18.58;100.00
69060;BME280;56135;37.534;-122.308;2022-09-29T03:39:05;101626.75;;;18.52;100.00
69060;BME280;56135;37.534;-122.308;2022-09-29T03:41:31;101627.75;;;18.47;100.00
69060;BME280;56135;37.534;-122.308;2022-09-29T03:43:57;101635.19;;;18.38;100.00
69060;BME280;56135;37.534;-122.308;2022-09-29T03:46:23;101626.44;;;18.32;100.00
69060;BME280;56135;37.534;-122.308;2022-09-29T03:48:48;101632.78;;;18.28;100.00
69060;BME280;56135;37.534;-122.308;2022-09-29T03:51:14;101645.19;;;18.31;100.00
69060;BME280;56135;37.534;-122.308;2022-09-29T03:53:40;101645.31;;;18.28;100.00
69060;BME280;56135;37.534;-122.308;2022-09-29T03:56:06;101641.00;;;18.22;100.00
69060;BME280;56135;37.534;-122.308;2022-09-29T03:58:32;101646.44;;;18.19;100.00
69060;BME280;56135;37.534;-122.308;2022-09-29T04:00:58;101651.81;;;18.19;100.00
69060;BME280;56135;37.534;-122.308;2022-09-29T04:03:23;101651.75;;;18.21;100.00
69060;BME280;56135;37.534;-122.308;2022-09-29T04:05:49;101660.75;;;18.18;100.00
69060;BME280;56135;37.534;-122.308;2022-09-29T04:08:15;101667.84;;;18.19;100.00
69060;BME280;56135;37.534;-122.308;2022-09-29T04:10:46;101663.47;;;18.16;100.00
69060;BME280;56135;37.534;-122.308;2022-09-29T04:13:12;101670.69;;;18.13;100.00
69060;BME280;56135;37.534;-122.308;2022-09-29T04:15:46;101665.31;;;18.14;100.00
69060;BME280;56135;37.534;-122.308;2022-09-29T04:18:12;101669.97;;;18.08;100.00
69060;BME280;56135;37.534;-122.308;2022-09-29T04:20:38;101662.94;;;18.04;100.00
69060;BME280;56135;37.534;-122.308;2022-09-29T04:23:06;101677.25;;;18.03;100.00
69060;BME280;56135;37.534;-122.308;2022-09-29T04:25:32;101678.28;;;17.97;100.00
69060;BME280;56135;37.534;-122.308;2022-09-29T04:27:58;101676.63;;;17.93;100.00
69060;BME280;56135;37.534;-122.308;2022-09-29T04:30:24;101685.56;;;17.90;100.00
69060;BME280;56135;37.534;-122.308;2022-09-29T04:32:50;101678.63;;;17.84;100.00
69060;BME280;56135;37.534;-122.308;2022-09-29T04:35:15;101670.75;;;17.80;100.00
69060;BME280;56135;37.534;-122.308;2022-09-29T04:37:41;101682.25;;;17.82;100.00
69060;BME280;56135;37.534;-122.308;2022-09-29T04:40:07;101676.25;;;17.74;100.00
69060;BME280;56135;37.534;-122.308;2022-09-29T04:42:33;101684.31;;;17.72;100.00
69060;BME280;56135;37.534;-122.308;2022-09-29T04:44:59;101682.56;;;17.71;100.00
69060;BME280;56135;37.534;-122.308;2022-09-29T04:47:25;101675.38;;;17.73;100.00
69060;BME280;56135;37.534;-122.308;2022-09-29T04:49:51;101674.59;;;17.70;100.00
69060;BME280;56135;37.534;-122.308;2022-09-29T04:52:16;101685.38;;;17.65;100.00
69060;BME280;56135;37.534;-122.308;2022-09-29T04:54:42;101679.22;;;17.63;100.00
69060;BME280;56135;37.534;-122.308;2022-09-29T04:57:08;101689.13;;;17.59;100.00
69060;BME280;56135;37.534;-122.308;2022-09-29T04:59:34;101682.00;;;17.58;100.00
69060;BME280;56135;37.534;-122.308;2022-09-29T05:02:00;101684.81;;;17.54;100.00
69060;BME280;56135;37.534;-122.308;2022-09-29T05:04:26;101690.28;;;17.49;100.00
69060;BME280;56135;37.534;-122.308;2022-09-29T05:06:52;101682.41;;;17.44;100.00
69060;BME280;56135;37.534;-122.308;2022-09-29T05:09:18;101686.03;;;17.42;100.00
69060;BME280;56135;37.534;-122.308;2022-09-29T05:11:43;101683.41;;;17.39;100.00
69060;BME280;56135;37.534;-122.308;2022-09-29T05:14:09;101683.53;;;17.34;100.00
69060;BME280;56135;37.534;-122.308;2022-09-29T05:16:35;101688.84;;;17.36;100.00
69060;BME280;56135;37.534;-122.308;2022-09-29T05:19:01;101690.84;;;17.27;100.00
69060;BME280;56135;37.534;-122.308;2022-09-29T05:21:26;101688.03;;;17.32;100.00
69060;BME280;56135;37.534;-122.308;2022-09-29T05:23:52;101689.94;;;17.28;100.00
69060;BME280;56135;37.534;-122.308;2022-09-29T05:26:18;101681.88;;;17.30;100.00
69060;BME280;56135;37.534;-122.308;2022-09-29T05:28:44;101679.34;;;17.24;100.00
69060;BME280;56135;37.534;-122.308;2022-09-29T05:31:11;101688.31;;;17.21;100.00
69060;BME280;56135;37.534;-122.308;2022-09-29T05:33:37;101683.16;;;17.15;100.00
69060;BME280;56135;37.534;-122.308;2022-09-29T05:36:06;101687.78;;;17.07;100.00
69060;BME280;56135;37.534;-122.308;2022-09-29T05:38:33;101683.38;;;17.06;100.00
69060;BME280;56135;37.534;-122.308;2022-09-29T05:41:03;101688.56;;;17.12;100.00
69060;BME280;56135;37.534;-122.308;2022-09-29T05:43:29;101682.44;;;17.08;100.00
69060;BME280;56135;37.534;-122.308;2022-09-29T05:46:04;101682.44;;;17.08;100.00
69060;BME280;56135;37.534;-122.308;2022-09-29T05:48:30;101683.31;;;17.09;100.00
69060;BME280;56135;37.534;-122.308;2022-09-29T05:50:56;101680.72;;;17.04;100.00
69060;BME280;56135;37.534;-122.308;2022-09-29T05:53:22;101682.63;;;17.00;100.00
69060;BME280;56135;37.534;-122.308;2022-09-29T05:55:48;101683.63;;;16.96;100.00
69060;BME280;56135;37.534;-122.308;2022-09-29T05:58:14;101680.09;;;16.94;100.00
69060;BME280;56135;37.534;-122.308;2022-09-29T06:00:40;101684.56;;;16.94;100.00
69060;BME280;56135;37.534;-122.308;2022-09-29T06:03:06;101683.75;;;16.89;100.00
69060;BME280;56135;37.534;-122.308;2022-09-29T06:05:31;101680.41;;;16.80;100.00
69060;BME280;56135;37.534;-122.308;2022-09-29T06:07:57;101675.97;;;16.79;100.00
69060;BME280;56135;37.534;-122.308;2022-09-29T06:10:28;101677.75;;;16.79;100.00
69060;BME280;56135;37.534;-122.308;2022-09-29T06:12:54;101675.16;;;16.76;100.00
69060;BME280;56135;37.534;-122.308;2022-09-29T06:15:21;101676.16;;;16.72;100.00
69060;BME280;56135;37.534;-122.308;2022-09-29T06:17:47;101684.38;;;16.62;100.00
69060;BME280;56135;37.534;-122.308;2022-09-29T06:20:19;101679.13;;;16.59;100.00
69060;BME280;56135;37.534;-122.308;2022-09-29T06:22:44;101678.19;;;16.60;100.00
69060;BME280;56135;37.534;-122.308;2022-09-29T06:25:10;101677.34;;;16.58;100.00
69060;BME280;56135;37.534;-122.308;2022-09-29T06:27:36;101674.72;;;16.57;100.00
69060;BME280;56135;37.534;-122.308;2022-09-29T06:30:02;101678.22;;;16.59;100.00
69060;BME280;56135;37.534;-122.308;2022-09-29T06:32:27;101679.28;;;16.51;100.00
69060;BME280;56135;37.534;-122.308;2022-09-29T06:34:53;101674.94;;;16.47;100.00
69060;BME280;56135;37.534;-122.308;2022-09-29T06:37:38;101676.84;;;16.42;100.00
69060;BME280;56135;37.534;-122.308;2022-09-29T06:40:06;101667.94;;;16.42;100.00
69060;BME280;56135;37.534;-122.308;2022-09-29T06:42:33;101663.59;;;16.38;100.00
69060;BME280;56135;37.534;-122.308;2022-09-29T06:44:59;101665.47;;;16.32;100.00
69060;BME280;56135;37.534;-122.308;2022-09-29T06:47:26;101663.66;;;16.34;100.00
69060;BME280;56135;37.534;-122.308;2022-09-29T06:49:52;101668.19;;;16.31;100.00
69060;BME280;56135;37.534;-122.308;2022-09-29T06:52:17;101661.09;;;16.30;100.00
69060;BME280;56135;37.534;-122.308;2022-09-29T06:54:43;101661.97;;;16.30;100.00
69060;BME280;56135;37.534;-122.308;2022-09-29T06:57:09;101663.78;;;16.28;100.00
69060;BME280;56135;37.534;-122.308;2022-09-29T06:59:35;101658.53;;;16.25;100.00
69060;BME280;56135;37.534;-122.308;2022-09-29T07:02:01;101657.75;;;16.20;100.00
69060;BME280;56135;37.534;-122.308;2022-09-29T07:04:27;101650.00;;;16.09;100.00
69060;BME280;56135;37.534;-122.308;2022-09-29T07:06:53;101645.56;;;16.08;100.00
69060;BME280;56135;37.534;-122.308;2022-09-29T07:09:19;101652.66;;;16.09;100.00
69060;BME280;56135;37.534;-122.308;2022-09-29T07:11:46;101648.22;;;16.08;100.00
69060;BME280;56135;37.534;-122.308;2022-09-29T07:14:12;101655.44;;;16.03;100.00
69060;BME280;56135;37.534;-122.308;2022-09-29T07:16:38;101658.06;;;16.05;100.00
69060;BME280;56135;37.534;-122.308;2022-09-29T07:19:04;101661.72;;;16.00;100.00
69060;BME280;56135;37.534;-122.308;2022-09-29T07:21:30;101657.47;;;15.92;100.00
69060;BME280;56135;37.534;-122.308;2022-09-29T07:23:55;101654.81;;;15.92;100.00
69060;BME280;56135;37.534;-122.308;2022-09-29T07:26:21;101652.09;;;15.93;100.00
69060;BME280;56135;37.534;-122.308;2022-09-29T07:28:47;101653.94;;;15.90;100.00
69060;BME280;56135;37.534;-122.308;2022-09-29T07:31:14;101645.13;;;15.88;100.00
69060;BME280;56135;37.534;-122.308;2022-09-29T07:33:40;101652.28;;;15.84;100.00
69060;BME280;56135;37.534;-122.308;2022-09-29T07:36:06;101652.22;;;15.87;100.00
69060;BME280;56135;37.534;-122.308;2022-09-29T07:38:32;101650.47;;;15.88;100.00
69060;BME280;56135;37.534;-122.308;2022-09-29T07:40:59;101654.09;;;15.83;100.00
69060;BME280;56135;37.534;-122.308;2022-09-29T07:43:25;101650.56;;;15.80;100.00
69060;BME280;56135;37.534;-122.308;2022-09-29T07:45:51;101650.56;;;15.80;100.00
69060;BME280;56135;37.534;-122.308;2022-09-29T07:48:17;101643.53;;;15.77;100.00
69060;BME280;56135;37.534;-122.308;2022-09-29T07:50:43;101646.19;;;15.77;100.00
69060;BME280;56135;37.534;-122.308;2022-09-29T07:53:09;101647.94;;;15.78;100.00
69060;BME280;56135;37.534;-122.308;2022-09-29T07:55:36;101652.53;;;15.72;100.00
69060;BME280;56135;37.534;-122.308;2022-09-29T07:58:01;101651.63;;;15.71;100.00
69060;BME280;56135;37.534;-122.308;2022-09-29T08:00:28;101659.56;;;15.73;100.00
69060;BME280;56135;37.534;-122.308;2022-09-29T08:03:04;101655.22;;;15.68;100.00
69060;BME280;56135;37.534;-122.308;2022-09-29T08:05:33;101655.25;;;15.67;100.00
69060;BME280;56135;37.534;-122.308;2022-09-29T08:08:00;101654.47;;;15.62;100.00
69060;BME280;56135;37.534;-122.308;2022-09-29T08:10:26;101652.75;;;15.59;100.00
69060;BME280;56135;37.534;-122.308;2022-09-29T08:12:53;101654.56;;;15.57;100.00
69060;BME280;56135;37.534;-122.308;2022-09-29T08:15:19;101664.44;;;15.52;100.00
69060;BME280;56135;37.534;-122.308;2022-09-29T08:17:45;101667.09;;;15.52;100.00
69060;BME280;56135;37.534;-122.308;2022-09-29T08:20:11;101658.19;;;15.51;100.00
69060;BME280;56135;37.534;-122.308;2022-09-29T08:22:37;101661.00;;;15.45;100.00
69060;BME280;56135;37.534;-122.308;2022-09-29T08:25:03;101660.09;;;15.45;100.00
69060;BME280;56135;37.534;-122.308;2022-09-29T08:27:29;101668.16;;;15.42;100.00
69060;BME280;56135;37.534;-122.308;2022-09-29T08:29:54;101669.06;;;15.41;100.00
69060;BME280;56135;37.534;-122.308;2022-09-29T08:32:22;101665.59;;;15.37;100.00
69060;BME280;56135;37.534;-122.308;2022-09-29T08:34:47;101667.44;;;15.33;100.00
69060;BME280;56135;37.534;-122.308;2022-09-29T08:37:13;101668.34;;;15.31;100.00
69060;BME280;56135;37.534;-122.308;2022-09-29T08:39:39;101666.66;;;15.27;100.00
69060;BME280;56135;37.534;-122.308;2022-09-29T08:42:10;101663.91;;;15.31;100.00
69060;BME280;56135;37.534;-122.308;2022-09-29T08:44:43;101669.22;;;15.31;100.00
69060;BME280;56135;37.534;-122.308;2022-09-29T08:47:21;101660.44;;;15.26;100.00
69060;BME280;56135;37.534;-122.308;2022-09-29T08:49:57;101662.31;;;15.23;100.00
69060;BME280;56135;37.534;-122.308;2022-09-29T08:52:26;101649.91;;;15.20;100.00
69060;BME280;56135;37.534;-122.308;2022-09-29T08:55:02;101651.72;;;15.18;100.00
69060;BME280;56135;37.534;-122.308;2022-09-29T08:57:32;101652.66;;;15.15;100.00
69060;BME280;56135;37.534;-122.308;2022-09-29T09:00:01;101660.72;;;15.11;100.00
69060;BME280;56135;37.534;-122.308;2022-09-29T09:13:07;101651.97;;;15.02;100.00
69060;BME280;56135;37.534;-122.308;2022-09-29T09:16:40;101652.00;;;15.01;100.00
69060;BME280;56135;37.534;-122.308;2022-09-29T09:21:06;101666.31;;;14.94;100.00
69060;BME280;56135;37.534;-122.308;2022-09-29T09:26:04;101676.16;;;14.89;100.00
69060;BME280;56135;37.534;-122.308;2022-09-29T09:31:42;101664.69;;;14.85;100.00
69060;BME280;56135;37.534;-122.308;2022-09-29T09:36:31;101671.00;;;14.78;100.00
69060;BME280;56135;37.534;-122.308;2022-09-29T09:41:29;101672.06;;;14.67;100.00
69060;BME280;56135;37.534;-122.308;2022-09-29T09:44:00;101673.81;;;14.68;100.00
69060;BME280;56135;37.534;-122.308;2022-09-29T09:51:37;101665.03;;;14.59;100.00
69060;BME280;56135;37.534;-122.308;2022-09-29T09:54:21;101669.53;;;14.57;100.00
69060;BME280;56135;37.534;-122.308;2022-09-29T09:57:33;101670.44;;;14.54;100.00
69060;BME280;56135;37.534;-122.308;2022-09-29T09:59:54;101663.44;;;14.48;100.00
69060;BME280;56135;37.534;-122.308;2022-09-29T10:02:24;101660.00;;;14.42;100.00
69060;BME280;56135;37.534;-122.308;2022-09-29T10:04:51;101662.69;;;14.39;100.00
69060;BME280;56135;37.534;-122.308;2022-09-29T10:07:18;101667.16;;;14.37;100.00
69060;BME280;56135;37.534;-122.308;2022-09-29T10:09:44;101662.72;;;14.35;100.00
69060;BME280;56135;37.534;-122.308;2022-09-29T10:12:17;101662.78;;;14.32;100.00
69060;BME280;56135;37.534;-122.308;2022-09-29T10:17:45;101659.28;;;14.29;100.00
69060;BME280;56135;37.534;-122.308;2022-09-29T10:20:18;101656.66;;;14.24;100.00
69060;BME280;56135;37.534;-122.308;2022-09-29T10:22:52;101649.63;;;14.23;100.00
69060;BME280;56135;37.534;-122.308;2022-09-29T10:25:19;101656.78;;;14.18;100.00
69060;BME280;56135;37.534;-122.308;2022-09-29T10:27:46;101661.19;;;14.17;100.00
69060;BME280;56135;37.534;-122.308;2022-09-29T10:30:34;101661.31;;;14.08;100.00
69060;BME280;56135;37.534;-122.308;2022-09-29T10:33:01;101661.41;;;14.02;100.00
69060;BME280;56135;37.534;-122.308;2022-09-29T10:35:31;101672.03;;;13.99;100.00
69060;BME280;56135;37.534;-122.308;2022-09-29T10:38:42;101664.09;;;13.97;100.00
69060;BME280;56135;37.534;-122.308;2022-09-29T10:40:54;101658.78;;;13.97;100.00
69060;BME280;56135;37.534;-122.308;2022-09-29T10:43:23;101667.66;;;13.98;100.00
69060;BME280;56135;37.534;-122.308;2022-09-29T10:45:49;101670.34;;;13.93;100.00
69060;BME280;56135;37.534;-122.308;2022-09-29T10:48:15;101667.69;;;13.93;100.00
69060;BME280;56135;37.534;-122.308;2022-09-29T10:53:23;101663.25;;;13.94;100.00
69060;BME280;56135;37.534;-122.308;2022-09-29T10:55:54;101664.19;;;13.91;100.00
69060;BME280;56135;37.534;-122.308;2022-09-29T10:58:31;101657.19;;;13.84;100.00
69060;BME280;56135;37.534;-122.308;2022-09-29T11:01:16;101651.84;;;13.85;100.00
69060;BME280;56135;37.534;-122.308;2022-09-29T11:03:50;101658.97;;;13.83;100.00
69060;BME280;56135;37.534;-122.308;2022-09-29T11:06:24;101664.34;;;13.77;100.00
69060;BME280;56135;37.534;-122.308;2022-09-29T11:08:54;101659.84;;;13.84;100.00
69060;BME280;56135;37.534;-122.308;2022-09-29T11:13:46;101677.63;;;13.77;100.00
69060;BME280;56135;37.534;-122.308;2022-09-29T11:16:15;101676.72;;;13.80;100.00
69060;BME280;56135;37.534;-122.308;2022-09-29T11:18:48;101669.63;;;13.79;100.00
69060;BME280;56135;37.534;-122.308;2022-09-29T11:23:49;101675.00;;;13.76;100.00
69060;BME280;56135;37.534;-122.308;2022-09-29T11:26:29;101666.19;;;13.71;100.00
69060;BME280;56135;37.534;-122.308;2022-09-29T11:31:45;101658.22;;;13.71;100.00
69060;BME280;56135;37.534;-122.308;2022-09-29T11:34:29;101656.53;;;13.62;100.00
69060;BME280;56135;37.534;-122.308;2022-09-29T11:37:01;101656.63;;;13.56;100.00
69060;BME280;56135;37.534;-122.308;2022-09-29T11:49:51;101648.69;;;13.54;100.00
69060;BME280;56135;37.534;-122.308;2022-09-29T11:54:56;101643.44;;;13.48;100.00
69060;BME280;56135;37.534;-122.308;2022-09-29T11:57:45;101637.22;;;13.49;100.00
69060;BME280;56135;37.534;-122.308;2022-09-29T12:00:14;101638.06;;;13.51;100.00
69060;BME280;56135;37.534;-122.308;2022-09-29T12:02:45;101635.41;;;13.52;100.00
69060;BME280;56135;37.534;-122.308;2022-09-29T12:18:22;101654.97;;;13.45;100.00
69060;BME280;56135;37.534;-122.308;2022-09-29T12:20:51;101661.13;;;13.46;100.00
69060;BME280;56135;37.534;-122.308;2022-09-29T12:23:19;101663.78;;;13.46;100.00
69060;BME280;56135;37.534;-122.308;2022-09-29T12:25:55;101661.13;;;13.46;100.00
69060;BME280;56135;37.534;-122.308;2022-09-29T12:28:24;101662.03;;;13.43;100.00
69060;BME280;56135;37.534;-122.308;2022-09-29T12:30:54;101671.78;;;13.44;100.00
69060;BME280;56135;37.534;-122.308;2022-09-29T12:33:28;101673.56;;;13.41;100.00
69060;BME280;56135;37.534;-122.308;2022-09-29T12:39:02;101671.81;;;13.35;100.00
69060;BME280;56135;37.534;-122.308;2022-09-29T12:41:29;101669.19;;;13.33;100.00
69060;BME280;56135;37.534;-122.308;2022-09-29T12:46:58;101671.84;;;13.33;100.00
69060;BME280;56135;37.534;-122.308;2022-09-29T12:49:36;101672.78;;;13.28;100.00
69060;BME280;56135;37.534;-122.308;2022-09-29T12:52:07;101665.72;;;13.27;100.00
69060;BME280;56135;37.534;-122.308;2022-09-29T12:54:42;101663.09;;;13.22;100.00
69060;BME280;56135;37.534;-122.308;2022-09-29T12:57:15;101669.31;;;13.18;100.00
69060;BME280;56135;37.534;-122.308;2022-09-29T12:59:48;101670.25;;;13.17;100.00
69060;BME280;56135;37.534;-122.308;2022-09-29T13:12:20;101676.50;;;13.04;100.00
69060;BME280;56135;37.534;-122.308;2022-09-29T13:15:02;101673.06;;;12.95;100.00
69060;BME280;56135;37.534;-122.308;2022-09-29T13:17:37;101675.72;;;12.92;100.00
69060;BME280;56135;37.534;-122.308;2022-09-29T13:20:21;101676.66;;;12.85;100.00
69060;BME280;56135;37.534;-122.308;2022-09-29T13:30:49;101674.94;;;12.82;100.00
69060;BME280;56135;37.534;-122.308;2022-09-29T13:33:22;101671.41;;;12.79;100.00
69060;BME280;56135;37.534;-122.308;2022-09-29T13:35:49;101665.19;;;12.83;100.00
69060;BME280;56135;37.534;-122.308;2022-09-29T13:38:17;101672.28;;;12.84;100.00
69060;BME280;56135;37.534;-122.308;2022-09-29T13:43:39;101670.47;;;12.86;100.00
69060;BME280;56135;37.534;-122.308;2022-09-29T13:49:02;101666.06;;;12.87;100.00
69060;BME280;56135;37.534;-122.308;2022-09-29T13:54:13;101666.97;;;12.84;100.00
69060;BME280;56135;37.534;-122.308;2022-09-29T13:56:46;101669.63;;;12.84;100.00
69060;BME280;56135;37.534;-122.308;2022-09-29T13:59:13;101671.41;;;12.79;100.00
69060;BME280;56135;37.534;-122.308;2022-09-29T14:01:39;101668.78;;;12.79;100.00
69060;BME280;56135;37.534;-122.308;2022-09-29T14:06:50;101671.41;;;12.79;100.00
69060;BME280;56135;37.534;-122.308;2022-09-29T14:09:16;101670.53;;;12.77;100.00
69060;BME280;56135;37.534;-122.308;2022-09-29T14:11:47;101670.56;;;12.74;100.00
69060;BME280;56135;37.534;-122.308;2022-09-29T14:19:41;101667.06;;;12.68;100.00
69060;BME280;56135;37.534;-122.308;2022-09-29T14:24:51;101676.75;;;12.74;100.00
69060;BME280;56135;37.534;-122.308;2022-09-29T14:27:22;101686.44;;;12.78;100.00
69060;BME280;56135;37.534;-122.308;2022-09-29T14:32:17;101693.50;;;12.78;100.00
69060;BME280;56135;37.534;-122.308;2022-09-29T14:34:44;101696.16;;;12.82;100.00
69060;BME280;56135;37.534;-122.308;2022-09-29T14:37:15;101697.88;;;12.87;100.00
69060;BME280;56135;37.534;-122.308;2022-09-29T14:39:44;101698.75;;;12.89;100.00
69060;BME280;56135;37.534;-122.308;2022-09-29T14:42:30;101707.53;;;12.95;100.00
69060;BME280;56135;37.534;-122.308;2022-09-29T14:44:56;101710.19;;;12.98;100.00
69060;BME280;56135;37.534;-122.308;2022-09-29T14:47:46;101708.34;;;13.02;100.00
69060;BME280;56135;37.534;-122.308;2022-09-29T14:50:42;101718.06;;;13.08;100.00
69060;BME280;56135;37.534;-122.308;2022-09-29T14:53:41;101716.25;;;13.11;100.00
69060;BME280;56135;37.534;-122.308;2022-09-29T15:01:09;101722.28;;;13.29;100.00
69060;BME280;56135;37.534;-122.308;2022-09-29T15:03:47;101726.69;;;13.38;100.00
69060;BME280;56135;37.534;-122.308;2022-09-29T15:06:16;101728.41;;;13.45;100.00
69060;BME280;56135;37.534;-122.308;2022-09-29T15:08:58;101730.09;;;13.52;100.00